Terminal Aerodrome Forecast
Issued by NWS

Home | Current Version | Previous Version | Graphics & Text | Print | Product List | Glossary On
Versions: 1 2 3 4 5 6 7 8 9 10 11 12 13 14 15
000
FTUS43 KMPX 230900 AAA
TAFRWF
TAF AMD
KRWF 230927Z 2309/2406 12009KT P6SM -RA OVC070
     FM231100 13013G20KT P6SM VCSH OVC060
     FM231400 14020G30KT 6SM -RA BR SCT030 OVC050
     FM231800 14025G37KT P6SM SCT040 BKN070
     FM240000 13020G30KT 4SM -RA BR SCT020 OVC040
      TEMPO 2401/2405 2SM -RA BR BKN020=

USA.gov is the U.S. government's official web portal to all federal, state and local government web resources and services.